sensor_id;sensor_type;location;lat;lon;timestamp;pressure;altitude;pressure_sealevel;temperature;humidity
28428;BME280;15662;49.128;8.520;2023-03-03T00:02:09;100734.41;;;9.45;42.03
28428;BME280;15662;49.128;8.520;2023-03-03T00:04:37;100733.56;;;9.44;42.33
28428;BME280;15662;49.128;8.520;2023-03-03T00:07:05;100731.81;;;9.43;42.00
28428;BME280;15662;49.128;8.520;2023-03-03T00:09:33;100734.47;;;9.43;42.12
28428;BME280;15662;49.128;8.520;2023-03-03T00:12:05;100735.34;;;9.42;42.05
28428;BME280;15662;49.128;8.520;2023-03-03T00:14:44;100739.84;;;9.36;42.49
28428;BME280;15662;49.128;8.520;2023-03-03T00:17:21;100735.44;;;9.38;42.18
28428;BME280;15662;49.128;8.520;2023-03-03T00:19:51;100746.91;;;9.35;42.25
28428;BME280;15662;49.128;8.520;2023-03-03T00:22:39;100746.97;;;9.32;42.32
28428;BME280;15662;49.128;8.520;2023-03-03T00:25:29;100739.94;;;9.31;42.10
28428;BME280;15662;49.128;8.520;2023-03-03T00:28:45;100743.53;;;9.25;42.60
28428;BME280;15662;49.128;8.520;2023-03-03T00:31:20;100743.53;;;9.25;42.57
28428;BME280;15662;49.128;8.520;2023-03-03T00:33:54;100747.06;;;9.24;42.47
28428;BME280;15662;49.128;8.520;2023-03-03T00:36:38;100755.94;;;9.20;42.42
28428;BME280;15662;49.128;8.520;2023-03-03T00:39:33;100753.31;;;9.19;42.32
28428;BME280;15662;49.128;8.520;2023-03-03T00:42:16;100748.06;;;9.16;42.37
28428;BME280;15662;49.128;8.520;2023-03-03T00:52:43;100754.38;;;9.05;42.73
28428;BME280;15662;49.128;8.520;2023-03-03T00:55:12;100751.78;;;9.02;42.30
28428;BME280;15662;49.128;8.520;2023-03-03T00:57:39;100742.13;;;9.00;42.27
28428;BME280;15662;49.128;8.520;2023-03-03T01:00:11;100738.63;;;8.98;42.43
28428;BME280;15662;49.128;8.520;2023-03-03T01:02:40;100746.56;;;8.96;42.63
28428;BME280;15662;49.128;8.520;2023-03-03T01:05:09;100744.81;;;8.95;42.68
28428;BME280;15662;49.128;8.520;2023-03-03T01:07:39;100751.03;;;8.91;42.64
28428;BME280;15662;49.128;8.520;2023-03-03T01:10:08;100756.31;;;8.91;42.67
28428;BME280;15662;49.128;8.520;2023-03-03T01:12:37;100752.88;;;8.88;42.41
28428;BME280;15662;49.128;8.520;2023-03-03T01:15:08;100750.22;;;8.88;42.48
28428;BME280;15662;49.128;8.520;2023-03-03T01:17:36;100749.38;;;8.84;42.61
28428;BME280;15662;49.128;8.520;2023-03-03T01:20:09;100752.91;;;8.82;42.89
28428;BME280;15662;49.128;8.520;2023-03-03T01:22:37;100759.22;;;8.73;42.86
28428;BME280;15662;49.128;8.520;2023-03-03T01:25:06;100751.38;;;8.65;42.96
28428;BME280;15662;49.128;8.520;2023-03-03T01:27:35;100755.84;;;8.60;42.43
28428;BME280;15662;49.128;8.520;2023-03-03T01:30:05;100748.00;;;8.51;42.92
28428;BME280;15662;49.128;8.520;2023-03-03T01:32:34;100749.88;;;8.41;42.41
28428;BME280;15662;49.128;8.520;2023-03-03T01:35:03;100746.44;;;8.33;42.89
28428;BME280;15662;49.128;8.520;2023-03-03T01:37:30;100741.19;;;8.27;42.90
28428;BME280;15662;49.128;8.520;2023-03-03T01:40:02;100748.25;;;8.26;42.94
28428;BME280;15662;49.128;8.520;2023-03-03T01:42:30;100741.22;;;8.22;43.14
28428;BME280;15662;49.128;8.520;2023-03-03T01:45:15;100749.16;;;8.22;42.66
28428;BME280;15662;49.128;8.520;2023-03-03T01:48:16;100745.72;;;8.14;42.49
28428;BME280;15662;49.128;8.520;2023-03-03T01:53:43;100746.69;;;8.06;42.98
28428;BME280;15662;49.128;8.520;2023-03-03T01:56:13;100741.44;;;8.01;42.87
28428;BME280;15662;49.128;8.520;2023-03-03T01:58:50;100742.38;;;7.97;43.04
28428;BME280;15662;49.128;8.520;2023-03-03T02:01:23;100735.38;;;7.91;42.76
28428;BME280;15662;49.128;8.520;2023-03-03T02:03:52;100744.22;;;7.86;43.07
28428;BME280;15662;49.128;8.520;2023-03-03T02:06:27;100747.81;;;7.80;42.94
28428;BME280;15662;49.128;8.520;2023-03-03T02:11:44;100744.38;;;7.69;43.00
28428;BME280;15662;49.128;8.520;2023-03-03T02:14:14;100736.47;;;7.66;43.08
28428;BME280;15662;49.128;8.520;2023-03-03T02:16:43;100738.25;;;7.65;42.88
28428;BME280;15662;49.128;8.520;2023-03-03T02:19:23;100741.78;;;7.64;42.99
28428;BME280;15662;49.128;8.520;2023-03-03T02:21:55;100740.03;;;7.60;43.26
28428;BME280;15662;49.128;8.520;2023-03-03T02:24:46;100742.72;;;7.59;43.32
28428;BME280;15662;49.128;8.520;2023-03-03T02:27:16;100742.72;;;7.53;43.37
28428;BME280;15662;49.128;8.520;2023-03-03T02:29:44;100744.50;;;7.50;43.40
28428;BME280;15662;49.128;8.520;2023-03-03T02:32:12;100736.63;;;7.43;43.68
28428;BME280;15662;49.128;8.520;2023-03-03T02:34:49;100736.66;;;7.41;43.43
28428;BME280;15662;49.128;8.520;2023-03-03T02:37:19;100751.63;;;7.41;43.23
28428;BME280;15662;49.128;8.520;2023-03-03T02:39:47;100747.22;;;7.40;43.47
28428;BME280;15662;49.128;8.520;2023-03-03T02:42:26;100747.25;;;7.37;43.17
28428;BME280;15662;49.128;8.520;2023-03-03T02:44:57;100751.75;;;7.21;43.34
28428;BME280;15662;49.128;8.520;2023-03-03T02:47:25;100740.25;;;7.31;43.18
28428;BME280;15662;49.128;8.520;2023-03-03T02:49:52;100740.22;;;7.36;43.04
28428;BME280;15662;49.128;8.520;2023-03-03T02:52:20;100736.69;;;7.34;43.80
28428;BME280;15662;49.128;8.520;2023-03-03T02:54:49;100739.38;;;7.28;43.24
28428;BME280;15662;49.128;8.520;2023-03-03T02:57:17;100747.31;;;7.23;43.29
28428;BME280;15662;49.128;8.520;2023-03-03T03:00:06;100750.00;;;7.20;43.44
28428;BME280;15662;49.128;8.520;2023-03-03T03:02:55;100747.38;;;7.15;43.48
28428;BME280;15662;49.128;8.520;2023-03-03T03:05:31;100751.78;;;7.12;43.48
28428;BME280;15662;49.128;8.520;2023-03-03T03:07:59;100749.16;;;7.10;43.46
28428;BME280;15662;49.128;8.520;2023-03-03T03:10:27;100746.53;;;7.07;43.23
28428;BME280;15662;49.128;8.520;2023-03-03T03:12:54;100749.16;;;7.07;43.19
28428;BME280;15662;49.128;8.520;2023-03-03T03:15:44;100754.44;;;7.09;43.79
28428;BME280;15662;49.128;8.520;2023-03-03T03:18:31;100752.69;;;7.06;43.70
28428;BME280;15662;49.128;8.520;2023-03-03T03:21:19;100750.09;;;6.97;43.59
28428;BME280;15662;49.128;8.520;2023-03-03T03:24:07;100750.19;;;6.85;43.65
28428;BME280;15662;49.128;8.520;2023-03-03T03:27:05;100766.00;;;6.79;43.48
28428;BME280;15662;49.128;8.520;2023-03-03T03:29:54;100759.88;;;6.77;43.69
28428;BME280;15662;49.128;8.520;2023-03-03T03:32:22;100764.25;;;6.75;43.60
28428;BME280;15662;49.128;8.520;2023-03-03T03:34:50;100759.88;;;6.73;43.54
28428;BME280;15662;49.128;8.520;2023-03-03T03:37:19;100762.53;;;6.67;43.77
28428;BME280;15662;49.128;8.520;2023-03-03T03:39:47;100771.31;;;6.66;43.64
28428;BME280;15662;49.128;8.520;2023-03-03T03:42:23;100766.06;;;6.66;43.75
28428;BME280;15662;49.128;8.520;2023-03-03T03:45:38;100768.69;;;6.62;43.68
28428;BME280;15662;49.128;8.520;2023-03-03T03:48:07;100771.34;;;6.62;43.72
28428;BME280;15662;49.128;8.520;2023-03-03T03:50:35;100770.44;;;6.63;43.97
28428;BME280;15662;49.128;8.520;2023-03-03T03:53:05;100768.69;;;6.59;43.81
28428;BME280;15662;49.128;8.520;2023-03-03T03:55:33;100781.88;;;6.57;43.85
28428;BME280;15662;49.128;8.520;2023-03-03T03:58:02;100775.72;;;6.58;43.77
28428;BME280;15662;49.128;8.520;2023-03-03T04:00:30;100782.75;;;6.55;43.79
28428;BME280;15662;49.128;8.520;2023-03-03T04:03:00;100783.63;;;6.57;43.75
28428;BME280;15662;49.128;8.520;2023-03-03T04:05:28;100781.00;;;6.54;43.64
28428;BME280;15662;49.128;8.520;2023-03-03T04:07:56;100776.63;;;6.48;44.05
28428;BME280;15662;49.128;8.520;2023-03-03T04:10:24;100788.03;;;6.49;43.99
28428;BME280;15662;49.128;8.520;2023-03-03T04:12:52;100786.28;;;6.44;44.22
28428;BME280;15662;49.128;8.520;2023-03-03T04:15:21;100790.69;;;6.39;44.19
28428;BME280;15662;49.128;8.520;2023-03-03T04:17:49;100787.22;;;6.36;44.02
28428;BME280;15662;49.128;8.520;2023-03-03T04:20:17;100786.31;;;6.35;44.09
28428;BME280;15662;49.128;8.520;2023-03-03T04:22:46;100794.22;;;6.34;44.17
28428;BME280;15662;49.128;8.520;2023-03-03T04:25:16;100791.59;;;6.31;44.33
28428;BME280;15662;49.128;8.520;2023-03-03T04:27:45;100797.75;;;6.31;43.96
28428;BME280;15662;49.128;8.520;2023-03-03T04:30:15;100791.59;;;6.32;44.31
28428;BME280;15662;49.128;8.520;2023-03-03T04:32:46;100792.50;;;6.16;44.23
28428;BME280;15662;49.128;8.520;2023-03-03T04:35:16;100784.59;;;6.22;44.08
28428;BME280;15662;49.128;8.520;2023-03-03T04:37:44;100788.06;;;6.29;44.16
28428;BME280;15662;49.128;8.520;2023-03-03T04:40:13;100788.06;;;6.29;44.16
28428;BME280;15662;49.128;8.520;2023-03-03T04:42:42;100775.81;;;6.23;44.46
28428;BME280;15662;49.128;8.520;2023-03-03T04:45:10;100784.56;;;6.25;44.16
28428;BME280;15662;49.128;8.520;2023-03-03T04:47:38;100791.59;;;6.26;44.39
28428;BME280;15662;49.128;8.520;2023-03-03T04:50:08;100790.72;;;6.24;44.26
28428;BME280;15662;49.128;8.520;2023-03-03T04:52:37;100781.06;;;6.23;44.28
28428;BME280;15662;49.128;8.520;2023-03-03T04:55:07;100783.69;;;6.20;44.24
28428;BME280;15662;49.128;8.520;2023-03-03T04:57:38;100784.59;;;6.17;44.33
28428;BME280;15662;49.128;8.520;2023-03-03T05:00:07;100787.22;;;6.13;44.59
28428;BME280;15662;49.128;8.520;2023-03-03T05:02:35;100792.50;;;6.08;44.61
28428;BME280;15662;49.128;8.520;2023-03-03T05:05:05;100788.97;;;5.95;44.95
28428;BME280;15662;49.128;8.520;2023-03-03T05:07:33;100786.34;;;5.86;44.86
28428;BME280;15662;49.128;8.520;2023-03-03T05:10:01;100796.84;;;5.88;45.02
28428;BME280;15662;49.128;8.520;2023-03-03T05:12:28;100792.47;;;5.84;44.98
28428;BME280;15662;49.128;8.520;2023-03-03T05:14:56;100802.97;;;5.85;44.92
28428;BME280;15662;49.128;8.520;2023-03-03T05:17:24;100804.75;;;5.86;45.13
28428;BME280;15662;49.128;8.520;2023-03-03T05:19:52;100801.25;;;5.87;45.24
28428;BME280;15662;49.128;8.520;2023-03-03T05:22:20;100811.75;;;5.87;45.25
28428;BME280;15662;49.128;8.520;2023-03-03T05:24:48;100811.75;;;5.78;45.30
28428;BME280;15662;49.128;8.520;2023-03-03T05:27:16;100815.25;;;5.73;45.31
28428;BME280;15662;49.128;8.520;2023-03-03T05:29:44;100825.78;;;5.68;45.43
28428;BME280;15662;49.128;8.520;2023-03-03T05:32:12;100821.38;;;5.68;45.45
28428;BME280;15662;49.128;8.520;2023-03-03T05:34:40;100831.03;;;5.76;45.56
28428;BME280;15662;49.128;8.520;2023-03-03T05:37:07;100827.53;;;5.78;45.17
28428;BME280;15662;49.128;8.520;2023-03-03T05:39:35;100817.88;;;5.74;45.23
28428;BME280;15662;49.128;8.520;2023-03-03T05:42:03;100831.91;;;5.70;45.24
28428;BME280;15662;49.128;8.520;2023-03-03T05:44:31;100822.28;;;5.67;45.57
28428;BME280;15662;49.128;8.520;2023-03-03T05:46:59;100829.28;;;5.67;45.44
28428;BME280;15662;49.128;8.520;2023-03-03T05:49:27;100843.28;;;5.63;45.64
28428;BME280;15662;49.128;8.520;2023-03-03T05:51:56;100835.38;;;5.60;45.37
28428;BME280;15662;49.128;8.520;2023-03-03T05:54:25;100841.56;;;5.66;45.73
28428;BME280;15662;49.128;8.520;2023-03-03T05:56:53;100845.06;;;5.72;45.58
28428;BME280;15662;49.128;8.520;2023-03-03T05:59:21;100857.34;;;5.77;45.69
28428;BME280;15662;49.128;8.520;2023-03-03T06:01:49;100859.97;;;5.79;45.76
28428;BME280;15662;49.128;8.520;2023-03-03T06:04:17;100859.13;;;5.81;45.61
28428;BME280;15662;49.128;8.520;2023-03-03T06:06:45;100864.38;;;5.83;45.60
28428;BME280;15662;49.128;8.520;2023-03-03T06:09:13;100861.75;;;5.87;45.63
28428;BME280;15662;49.128;8.520;2023-03-03T06:11:41;100860.00;;;5.86;45.83
28428;BME280;15662;49.128;8.520;2023-03-03T06:14:08;100871.41;;;5.88;46.13
28428;BME280;15662;49.128;8.520;2023-03-03T06:16:37;100866.13;;;5.84;46.15
28428;BME280;15662;49.128;8.520;2023-03-03T06:19:04;100860.88;;;5.87;46.37
28428;BME280;15662;49.128;8.520;2023-03-03T06:21:32;100875.78;;;5.89;46.48
28428;BME280;15662;49.128;8.520;2023-03-03T06:24:00;100876.69;;;5.94;46.66
28428;BME280;15662;49.128;8.520;2023-03-03T06:26:31;100878.47;;;6.02;46.59
28428;BME280;15662;49.128;8.520;2023-03-03T06:29:03;100884.59;;;6.04;46.43
28428;BME280;15662;49.128;8.520;2023-03-03T06:31:31;100883.72;;;6.00;46.45
28428;BME280;15662;49.128;8.520;2023-03-03T06:33:59;100881.03;;;5.91;46.87
28428;BME280;15662;49.128;8.520;2023-03-03T06:36:30;100889.78;;;5.81;46.96
28428;BME280;15662;49.128;8.520;2023-03-03T06:38:58;100887.16;;;5.73;46.86
28428;BME280;15662;49.128;8.520;2023-03-03T06:41:25;100892.38;;;5.70;46.69
28428;BME280;15662;49.128;8.520;2023-03-03T06:43:54;100899.44;;;5.73;47.02
28428;BME280;15662;49.128;8.520;2023-03-03T06:46:22;100916.97;;;5.75;47.13
28428;BME280;15662;49.128;8.520;2023-03-03T06:48:49;100910.84;;;5.79;47.07
28428;BME280;15662;49.128;8.520;2023-03-03T06:51:36;100896.81;;;5.89;46.61
28428;BME280;15662;49.128;8.520;2023-03-03T06:54:23;100901.28;;;6.03;46.87
28428;BME280;15662;49.128;8.520;2023-03-03T06:57:01;100890.75;;;6.07;46.51
28428;BME280;15662;49.128;8.520;2023-03-03T06:59:32;100907.41;;;6.14;46.76
28428;BME280;15662;49.128;8.520;2023-03-03T07:02:00;100900.41;;;6.14;46.90
28428;BME280;15662;49.128;8.520;2023-03-03T07:04:32;100907.44;;;6.22;46.72
28428;BME280;15662;49.128;8.520;2023-03-03T07:09:53;100900.38;;;6.20;46.73
28428;BME280;15662;49.128;8.520;2023-03-03T07:12:25;100906.56;;;6.27;47.02
28428;BME280;15662;49.128;8.520;2023-03-03T07:15:34;100902.16;;;6.28;47.00
28428;BME280;15662;49.128;8.520;2023-03-03T07:21:32;100902.16;;;6.28;47.33
28428;BME280;15662;49.128;8.520;2023-03-03T07:24:24;100907.41;;;6.25;47.45
28428;BME280;15662;49.128;8.520;2023-03-03T07:27:05;100910.06;;;6.22;47.62
28428;BME280;15662;49.128;8.520;2023-03-03T07:29:37;100916.19;;;6.20;47.65
28428;BME280;15662;49.128;8.520;2023-03-03T07:32:38;100922.38;;;6.36;47.68
28428;BME280;15662;49.128;8.520;2023-03-03T07:35:42;100920.59;;;6.44;47.77
28428;BME280;15662;49.128;8.520;2023-03-03T07:38:34;100917.97;;;6.52;47.71
28428;BME280;15662;49.128;8.520;2023-03-03T07:41:09;100923.22;;;6.38;47.82
28428;BME280;15662;49.128;8.520;2023-03-03T07:43:53;100936.41;;;6.55;47.81
28428;BME280;15662;49.128;8.520;2023-03-03T07:46:43;100941.66;;;6.63;47.95
28428;BME280;15662;49.128;8.520;2023-03-03T07:49:36;100945.16;;;6.72;48.04
28428;BME280;15662;49.128;8.520;2023-03-03T07:52:28;100944.28;;;6.80;48.23
28428;BME280;15662;49.128;8.520;2023-03-03T07:55:00;100939.91;;;6.80;48.28
28428;BME280;15662;49.128;8.520;2023-03-03T07:57:37;100938.13;;;6.88;48.22
28428;BME280;15662;49.128;8.520;2023-03-03T08:03:07;100954.78;;;7.03;48.22
28428;BME280;15662;49.128;8.520;2023-03-03T08:05:44;100951.25;;;7.08;48.72
28428;BME280;15662;49.128;8.520;2023-03-03T08:08:34;100956.53;;;7.14;48.34
28428;BME280;15662;49.128;8.520;2023-03-03T08:11:03;100960.03;;;7.18;48.34
28428;BME280;15662;49.128;8.520;2023-03-03T08:18:39;100956.44;;;7.46;48.48
28428;BME280;15662;49.128;8.520;2023-03-03T08:21:24;100964.28;;;7.62;47.83
28428;BME280;15662;49.128;8.520;2023-03-03T08:23:55;100951.94;;;7.67;47.72
28428;BME280;15662;49.128;8.520;2023-03-03T08:26:25;100951.91;;;7.71;47.39
28428;BME280;15662;49.128;8.520;2023-03-03T08:28:53;100944.84;;;7.78;48.00
28428;BME280;15662;49.128;8.520;2023-03-03T08:31:22;100946.59;;;7.81;47.67
28428;BME280;15662;49.128;8.520;2023-03-03T08:34:10;100952.72;;;7.87;47.45
28428;BME280;15662;49.128;8.520;2023-03-03T08:36:39;100950.94;;;7.92;47.20
28428;BME280;15662;49.128;8.520;2023-03-03T08:39:07;100953.56;;;7.98;47.08
28428;BME280;15662;49.128;8.520;2023-03-03T08:41:37;100954.38;;;8.07;47.19
28428;BME280;15662;49.128;8.520;2023-03-03T08:44:07;100959.63;;;8.14;47.17
28428;BME280;15662;49.128;8.520;2023-03-03T08:46:35;100956.91;;;8.20;47.27
28428;BME280;15662;49.128;8.520;2023-03-03T08:49:03;100959.53;;;8.22;47.03
28428;BME280;15662;49.128;8.520;2023-03-03T08:51:31;100965.69;;;8.28;47.12
28428;BME280;15662;49.128;8.520;2023-03-03T08:54:00;100975.31;;;8.34;47.01
28428;BME280;15662;49.128;8.520;2023-03-03T08:56:30;100962.09;;;8.37;47.55
28428;BME280;15662;49.128;8.520;2023-03-03T08:58:58;100964.72;;;8.45;47.49
28428;BME280;15662;49.128;8.520;2023-03-03T09:01:31;100975.22;;;8.51;47.38
28428;BME280;15662;49.128;8.520;2023-03-03T09:04:00;100959.31;;;8.59;47.44
28428;BME280;15662;49.128;8.520;2023-03-03T09:06:27;100967.22;;;8.63;46.76
28428;BME280;15662;49.128;8.520;2023-03-03T09:08:55;100974.19;;;8.72;47.23
28428;BME280;15662;49.128;8.520;2023-03-03T09:11:26;100974.13;;;8.79;47.50
28428;BME280;15662;49.128;8.520;2023-03-03T09:14:18;100976.69;;;8.89;46.73
28428;BME280;15662;49.128;8.520;2023-03-03T09:16:53;100981.06;;;8.93;46.98
28428;BME280;15662;49.128;8.520;2023-03-03T09:19:32;100980.97;;;9.02;47.15
28428;BME280;15662;49.128;8.520;2023-03-03T09:22:24;100980.94;;;9.03;47.37
28428;BME280;15662;49.128;8.520;2023-03-03T09:24:58;100973.88;;;9.07;46.92
28428;BME280;15662;49.128;8.520;2023-03-03T09:27:28;100969.41;;;9.11;47.07
28428;BME280;15662;49.128;8.520;2023-03-03T09:30:02;100980.78;;;9.22;46.77
28428;BME280;15662;49.128;8.520;2023-03-03T09:32:38;100980.72;;;9.26;47.31
28428;BME280;15662;49.128;8.520;2023-03-03T09:38:32;100966.44;;;9.40;46.86
28428;BME280;15662;49.128;8.520;2023-03-03T09:56:38;100982.66;;;9.86;46.21
28428;BME280;15662;49.128;8.520;2023-03-03T10:08:23;100990.31;;;10.07;46.05
28428;BME280;15662;49.128;8.520;2023-03-03T10:22:45;100980.91;;;10.48;45.38
28428;BME280;15662;49.128;8.520;2023-03-03T10:33:56;100977.84;;;10.74;44.86
28428;BME280;15662;49.128;8.520;2023-03-03T10:36:34;100985.66;;;10.82;44.77
28428;BME280;15662;49.128;8.520;2023-03-03T10:59:44;100994.53;;;11.30;43.54
28428;BME280;15662;49.128;8.520;2023-03-03T11:02:36;100988.25;;;11.34;43.57
28428;BME280;15662;49.128;8.520;2023-03-03T11:08:16;100989.88;;;11.43;43.14
28428;BME280;15662;49.128;8.520;2023-03-03T11:27:51;100974.91;;;11.84;42.61
28428;BME280;15662;49.128;8.520;2023-03-03T11:30:44;100971.19;;;11.91;42.16
28428;BME280;15662;49.128;8.520;2023-03-03T11:33:57;100969.41;;;11.93;42.36
28428;BME280;15662;49.128;8.520;2023-03-03T11:36:47;100961.25;;;12.01;42.60
28428;BME280;15662;49.128;8.520;2023-03-03T11:39:25;100963.91;;;12.02;42.05
28428;BME280;15662;49.128;8.520;2023-03-03T11:44:37;100962.69;;;12.17;41.66
28428;BME280;15662;49.128;8.520;2023-03-03T11:47:38;100955.63;;;12.14;41.18
28428;BME280;15662;49.128;8.520;2023-03-03T11:50:22;100956.44;;;12.18;41.64
28428;BME280;15662;49.128;8.520;2023-03-03T11:53:21;100954.56;;;12.23;41.53
28428;BME280;15662;49.128;8.520;2023-03-03T11:56:09;100949.09;;;12.29;41.38
28428;BME280;15662;49.128;8.520;2023-03-03T11:59:13;100948.09;;;12.33;41.11
28428;BME280;15662;49.128;8.520;2023-03-03T12:01:56;100936.50;;;12.36;41.29
28428;BME280;15662;49.128;8.520;2023-03-03T12:04:38;100934.66;;;12.39;41.33
28428;BME280;15662;49.128;8.520;2023-03-03T12:07:56;100935.50;;;12.42;40.97
28428;BME280;15662;49.128;8.520;2023-03-03T12:11:08;100921.38;;;12.39;40.66
28428;BME280;15662;49.128;8.520;2023-03-03T12:16:58;100923.09;;;12.42;40.95
28428;BME280;15662;49.128;8.520;2023-03-03T12:22:34;100922.81;;;12.53;40.86
28428;BME280;15662;49.128;8.520;2023-03-03T12:25:28;100917.28;;;12.60;40.69
28428;BME280;15662;49.128;8.520;2023-03-03T12:28:29;100917.22;;;12.63;40.91
28428;BME280;15662;49.128;8.520;2023-03-03T12:31:46;100921.50;;;12.69;40.79
28428;BME280;15662;49.128;8.520;2023-03-03T12:34:46;100927.59;;;12.74;41.00
28428;BME280;15662;49.128;8.520;2023-03-03T12:40:34;100911.50;;;12.79;40.63
28428;BME280;15662;49.128;8.520;2023-03-03T12:48:41;100896.06;;;12.93;40.49
28428;BME280;15662;49.128;8.520;2023-03-03T12:57:18;100903.84;;;13.01;40.34
28428;BME280;15662;49.128;8.520;2023-03-03T13:09:15;100903.50;;;13.13;40.16
28428;BME280;15662;49.128;8.520;2023-03-03T13:14:43;100897.22;;;13.15;40.24
28428;BME280;15662;49.128;8.520;2023-03-03T13:17:27;100890.09;;;13.16;40.21
28428;BME280;15662;49.128;8.520;2023-03-03T13:20:24;100888.22;;;13.20;40.16
28428;BME280;15662;49.128;8.520;2023-03-03T13:23:21;100896.94;;;13.26;39.68
28428;BME280;15662;49.128;8.520;2023-03-03T13:26:21;100888.09;;;13.26;39.93
28428;BME280;15662;49.128;8.520;2023-03-03T13:31:46;100880.84;;;13.31;39.94
28428;BME280;15662;49.128;8.520;2023-03-03T13:43:23;100884.84;;;13.46;39.83
28428;BME280;15662;49.128;8.520;2023-03-03T13:46:25;100881.13;;;13.51;39.71
28428;BME280;15662;49.128;8.520;2023-03-03T13:52:04;100872.13;;;13.55;39.63
28428;BME280;15662;49.128;8.520;2023-03-03T14:01:05;100859.59;;;13.59;39.58
28428;BME280;15662;49.128;8.520;2023-03-03T14:04:08;100860.28;;;13.65;39.62
28428;BME280;15662;49.128;8.520;2023-03-03T14:06:41;100866.09;;;13.49;40.01
28428;BME280;15662;49.128;8.520;2023-03-03T14:09:44;100858.69;;;13.60;39.99
28428;BME280;15662;49.128;8.520;2023-03-03T14:12:37;100853.16;;;13.66;39.54
28428;BME280;15662;49.128;8.520;2023-03-03T14:15:27;100853.03;;;13.71;39.61
28428;BME280;15662;49.128;8.520;2023-03-03T14:20:52;100853.78;;;13.74;39.65
28428;BME280;15662;49.128;8.520;2023-03-03T14:26:14;100854.56;;;13.78;39.61
28428;BME280;15662;49.128;8.520;2023-03-03T14:28:45;100852.63;;;13.83;39.32
28428;BME280;15662;49.128;8.520;2023-03-03T14:31:25;100846.38;;;13.84;39.34
28428;BME280;15662;49.128;8.520;2023-03-03T14:36:39;100840.16;;;13.83;39.33
28428;BME280;15662;49.128;8.520;2023-03-03T14:39:36;100830.34;;;13.85;39.16
28428;BME280;15662;49.128;8.520;2023-03-03T14:42:28;100838.22;;;13.90;39.21
28428;BME280;15662;49.128;8.520;2023-03-03T14:44:56;100841.81;;;13.87;39.10
28428;BME280;15662;49.128;8.520;2023-03-03T14:47:28;100833.97;;;13.83;39.36
28428;BME280;15662;49.128;8.520;2023-03-03T14:49:57;100838.09;;;13.93;39.19
28428;BME280;15662;49.128;8.520;2023-03-03T14:52:32;100838.81;;;13.98;38.94
28428;BME280;15662;49.128;8.520;2023-03-03T14:55:32;100826.53;;;13.94;38.99
28428;BME280;15662;49.128;8.520;2023-03-03T14:58:00;100830.88;;;13.97;39.13
28428;BME280;15662;49.128;8.520;2023-03-03T15:00:32;100826.25;;;14.02;38.97
28428;BME280;15662;49.128;8.520;2023-03-03T15:03:26;100823.53;;;14.03;38.78
28428;BME280;15662;49.128;8.520;2023-03-03T15:05:55;100820.94;;;14.02;38.98
28428;BME280;15662;49.128;8.520;2023-03-03T15:08:35;100825.19;;;14.07;38.71
28428;BME280;15662;49.128;8.520;2023-03-03T15:11:27;100821.66;;;14.07;38.64
28428;BME280;15662;49.128;8.520;2023-03-03T15:14:16;100807.53;;;14.05;38.74
28428;BME280;15662;49.128;8.520;2023-03-03T15:16:45;100818.13;;;14.06;38.93
28428;BME280;15662;49.128;8.520;2023-03-03T15:19:49;100811.84;;;14.09;38.81
28428;BME280;15662;49.128;8.520;2023-03-03T15:22:47;100813.56;;;14.10;38.75
28428;BME280;15662;49.128;8.520;2023-03-03T15:25:50;100819.78;;;14.10;38.73
28428;BME280;15662;49.128;8.520;2023-03-03T15:34:50;100829.50;;;14.11;38.67
28428;BME280;15662;49.128;8.520;2023-03-03T15:55:05;100820.56;;;14.12;38.52
28428;BME280;15662;49.128;8.520;2023-03-03T16:00:32;100809.97;;;14.11;38.53
28428;BME280;15662;49.128;8.520;2023-03-03T16:03:19;100817.16;;;14.09;38.35
28428;BME280;15662;49.128;8.520;2023-03-03T16:06:04;100820.69;;;14.09;38.37
28428;BME280;15662;49.128;8.520;2023-03-03T16:09:10;100831.44;;;14.06;38.51
28428;BME280;15662;49.128;8.520;2023-03-03T16:35:05;100851.88;;;13.79;38.29
28428;BME280;15662;49.128;8.520;2023-03-03T16:41:18;100854.84;;;13.68;38.19
28428;BME280;15662;49.128;8.520;2023-03-03T16:44:10;100859.31;;;13.68;38.13
28428;BME280;15662;49.128;8.520;2023-03-03T16:46:47;100850.63;;;13.61;38.21
28428;BME280;15662;49.128;8.520;2023-03-03T16:52:21;100869.38;;;13.58;38.01
28428;BME280;15662;49.128;8.520;2023-03-03T16:55:27;100864.28;;;13.51;38.05
28428;BME280;15662;49.128;8.520;2023-03-03T17:16:13;100890.44;;;13.04;38.03
28428;BME280;15662;49.128;8.520;2023-03-03T17:22:20;100899.59;;;12.94;38.34
28428;BME280;15662;49.128;8.520;2023-03-03T17:25:21;100905.03;;;12.89;38.31
28428;BME280;15662;49.128;8.520;2023-03-03T17:31:06;100909.78;;;12.78;38.26
28428;BME280;15662;49.128;8.520;2023-03-03T17:34:04;100917.81;;;12.75;38.09
28428;BME280;15662;49.128;8.520;2023-03-03T18:07:50;100951.91;;;12.23;38.17
28428;BME280;15662;49.128;8.520;2023-03-03T18:10:37;100952.81;;;12.21;38.30
28428;BME280;15662;49.128;8.520;2023-03-03T18:22:45;100971.97;;;11.98;38.43
28428;BME280;15662;49.128;8.520;2023-03-03T18:25:25;100972.97;;;11.92;38.49
28428;BME280;15662;49.128;8.520;2023-03-03T18:28:19;100965.94;;;11.90;38.43
28428;BME280;15662;49.128;8.520;2023-03-03T18:31:01;100977.47;;;11.88;38.41
28428;BME280;15662;49.128;8.520;2023-03-03T18:34:06;100974.94;;;11.82;38.12
28428;BME280;15662;49.128;8.520;2023-03-03T18:36:50;100970.59;;;11.77;38.25
28428;BME280;15662;49.128;8.520;2023-03-03T18:44:53;100977.88;;;11.67;38.39
28428;BME280;15662;49.128;8.520;2023-03-03T18:48:09;100985.03;;;11.63;38.62
28428;BME280;15662;49.128;8.520;2023-03-03T18:53:27;100978.13;;;11.55;38.40
28428;BME280;15662;49.128;8.520;2023-03-03T18:55:58;100993.31;;;11.48;38.84
28428;BME280;15662;49.128;8.520;2023-03-03T19:09:41;100995.44;;;11.28;39.04
28428;BME280;15662;49.128;8.520;2023-03-03T19:12:09;101004.44;;;11.21;38.78
28428;BME280;15662;49.128;8.520;2023-03-03T19:14:45;100995.59;;;11.20;38.81